Calgary International Airport
CYYC : now visible

Airfield :











YOU CAN JOIN US ON...

 
LOGIN :

Register | Disclaimer

   EN    FR    IT 

 









Legend :    VFR   Marginal VFR   IFR   Intensive IFR   Very Intensive IFR
Visi :
Ceiling :
>= 8 km
>= 3000ft
5 to 8 km
1000 to 3000 ft
1500m to 5 km
500 to 1000 ft
800 to 1500m
200 to 500 ft
< 800m
< 200 ft
Symbols :   Thunderstorms  Fog  Heavy snow  Heavy precipitations  Wind > 20 kt






- Airport Elevation : 3557 ft
- IATA code : YYC


CYYC - Calgary International

CURRENT METAR :
  • 230200Z 09008KT 6SM -SN FEW014 OVC031 M09/M11 A3041 RMK SF1SC7 SLP378

EXPIRED METARs :
  • 230100Z 09009KT 3SM -SN FEW009 OVC025 M09/M11 A3040 RMK CU1SC7 SLP373
  • 230026Z 07008KT 2SM -SHSN SCT009TCU OVC027 M09/M11 A3042 RMK TCU4SC4 VIS N 3 SLP379
  • 230000Z 08006KT 3SM -SHSN SCT009TCU BKN018 OVC028 M09/M11 A3042 RMK TCU4SC2SC2 /S01/ SLP380
  • 222344Z 08009KT 2 1/4SM -SHSN SCT009TCU BKN020 BKN032 M09/M11 A3041 RMK TCU3SC2SC2 SLP375

TAF TAF CYYC
Valid from the 23 at 00:00 until the 24 at 00:00 UTC


222338Z 2300/2324 07008KT P6SM -SN SCT008 OVC030
TEMPO 2300/2303 2SM -SHSN VV008
FM230300 09008KT P6SM SCT008 OVC030
TEMPO 2303/2309 5SM -SN BR BKN008 OVC020
FM230900 12005KT P6SM -SN SCT007 OVC020
TEMPO 2309/2316 2SM -SN BR OVC007
FM231600 14010KT 6SM -SN SCT007 OVC020
TEMPO 2316/2320 2SM -SN OVC007
FM232000 10010KT 3SM -SN OVC010
TEMPO 2320/2324 1SM -SN VV007 RMK NXT FCST BY 230300Z
CZEG FIR / North America



MET'MAP, your aeronautical weather chart ! - Copyright ORBIFLY December 2007 - Disclaimer

ORBIFLY MET'MAP TEAM :

Programming & Development : Alexandra Zaïnal
Concept & original design : Baudouin d'Aumeries
Assistance for programming : Marc-Olivier Méhu
Technical & hardware support : Manuel Goepfert

Contact : metmap@orbifly.com




SOURCES & CREDITS :

   NOAA       Earth
Advisory